sensor_id;sensor_type;location;lat;lon;timestamp;P1;durP1;ratioP1;P2;durP2;ratioP2
55756;SDS011;41676;44.610;44.078;2024-01-16T00:00:54;19.02;;;10.68;;
55756;SDS011;41676;44.610;44.078;2024-01-16T00:05:55;16.08;;;9.25;;
55756;SDS011;41676;44.610;44.078;2024-01-16T00:10:55;18.00;;;10.05;;
55756;SDS011;41676;44.610;44.078;2024-01-16T00:15:56;17.73;;;9.65;;
55756;SDS011;41676;44.610;44.078;2024-01-16T00:20:57;15.93;;;9.30;;
55756;SDS011;41676;44.610;44.078;2024-01-16T00:25:58;15.85;;;9.52;;
55756;SDS011;41676;44.610;44.078;2024-01-16T00:30:58;17.58;;;9.50;;
55756;SDS011;41676;44.610;44.078;2024-01-16T00:35:59;18.80;;;9.75;;
55756;SDS011;41676;44.610;44.078;2024-01-16T00:41:00;20.92;;;9.63;;
55756;SDS011;41676;44.610;44.078;2024-01-16T00:46:01;18.50;;;10.27;;
55756;SDS011;41676;44.610;44.078;2024-01-16T00:51:02;20.58;;;8.43;;
55756;SDS011;41676;44.610;44.078;2024-01-16T00:56:03;18.30;;;9.90;;
55756;SDS011;41676;44.610;44.078;2024-01-16T01:01:04;21.05;;;10.15;;
55756;SDS011;41676;44.610;44.078;2024-01-16T01:06:05;20.52;;;10.05;;
55756;SDS011;41676;44.610;44.078;2024-01-16T01:11:06;20.80;;;10.80;;
55756;SDS011;41676;44.610;44.078;2024-01-16T01:16:07;19.38;;;10.55;;
55756;SDS011;41676;44.610;44.078;2024-01-16T01:21:08;18.52;;;9.32;;
55756;SDS011;41676;44.610;44.078;2024-01-16T01:26:09;21.38;;;9.80;;
55756;SDS011;41676;44.610;44.078;2024-01-16T01:31:10;20.20;;;10.60;;
55756;SDS011;41676;44.610;44.078;2024-01-16T01:36:12;21.05;;;12.18;;
55756;SDS011;41676;44.610;44.078;2024-01-16T01:41:12;18.48;;;10.52;;
55756;SDS011;41676;44.610;44.078;2024-01-16T01:46:15;19.60;;;10.80;;
55756;SDS011;41676;44.610;44.078;2024-01-16T01:51:18;20.70;;;10.48;;
55756;SDS011;41676;44.610;44.078;2024-01-16T01:56:19;21.10;;;11.35;;
55756;SDS011;41676;44.610;44.078;2024-01-16T02:01:22;24.15;;;11.60;;
55756;SDS011;41676;44.610;44.078;2024-01-16T02:06:24;23.85;;;11.93;;
55756;SDS011;41676;44.610;44.078;2024-01-16T02:11:26;23.73;;;11.77;;
55756;SDS011;41676;44.610;44.078;2024-01-16T02:16:34;22.40;;;11.35;;
55756;SDS011;41676;44.610;44.078;2024-01-16T02:21:39;25.35;;;12.13;;
55756;SDS011;41676;44.610;44.078;2024-01-16T02:26:43;26.85;;;12.68;;
55756;SDS011;41676;44.610;44.078;2024-01-16T02:31:44;23.33;;;12.13;;
55756;SDS011;41676;44.610;44.078;2024-01-16T02:36:44;31.25;;;13.05;;
55756;SDS011;41676;44.610;44.078;2024-01-16T02:41:45;29.23;;;14.93;;
55756;SDS011;41676;44.610;44.078;2024-01-16T02:46:46;26.65;;;14.00;;
55756;SDS011;41676;44.610;44.078;2024-01-16T02:51:48;26.83;;;14.25;;
55756;SDS011;41676;44.610;44.078;2024-01-16T02:56:49;28.42;;;15.25;;
55756;SDS011;41676;44.610;44.078;2024-01-16T03:07:10;31.52;;;14.75;;
55756;SDS011;41676;44.610;44.078;2024-01-16T03:12:10;28.10;;;13.70;;
55756;SDS011;41676;44.610;44.078;2024-01-16T03:17:11;32.60;;;15.02;;
55756;SDS011;41676;44.610;44.078;2024-01-16T03:22:30;29.33;;;14.60;;
55756;SDS011;41676;44.610;44.078;2024-01-16T03:27:31;25.70;;;12.50;;
55756;SDS011;41676;44.610;44.078;2024-01-16T03:32:32;25.15;;;12.27;;
55756;SDS011;41676;44.610;44.078;2024-01-16T03:37:51;28.90;;;13.90;;
55756;SDS011;41676;44.610;44.078;2024-01-16T03:42:52;27.33;;;12.90;;
55756;SDS011;41676;44.610;44.078;2024-01-16T03:47:53;22.40;;;11.70;;
55756;SDS011;41676;44.610;44.078;2024-01-16T03:52:53;23.25;;;11.90;;
55756;SDS011;41676;44.610;44.078;2024-01-16T03:57:54;25.60;;;12.05;;
55756;SDS011;41676;44.610;44.078;2024-01-16T04:02:55;22.48;;;11.55;;
55756;SDS011;41676;44.610;44.078;2024-01-16T04:07:56;26.73;;;10.52;;
55756;SDS011;41676;44.610;44.078;2024-01-16T04:13:00;27.83;;;10.68;;
55756;SDS011;41676;44.610;44.078;2024-01-16T04:18:03;19.42;;;11.00;;
55756;SDS011;41676;44.610;44.078;2024-01-16T04:23:04;23.65;;;11.15;;
55756;SDS011;41676;44.610;44.078;2024-01-16T04:28:05;25.42;;;11.18;;
55756;SDS011;41676;44.610;44.078;2024-01-16T04:33:05;21.52;;;10.20;;
55756;SDS011;41676;44.610;44.078;2024-01-16T04:38:06;24.30;;;10.75;;
55756;SDS011;41676;44.610;44.078;2024-01-16T04:43:07;31.73;;;11.43;;
55756;SDS011;41676;44.610;44.078;2024-01-16T04:48:08;21.95;;;10.18;;
55756;SDS011;41676;44.610;44.078;2024-01-16T04:53:09;27.70;;;10.32;;
55756;SDS011;41676;44.610;44.078;2024-01-16T04:58:10;27.90;;;12.30;;
55756;SDS011;41676;44.610;44.078;2024-01-16T05:03:11;25.67;;;11.82;;
55756;SDS011;41676;44.610;44.078;2024-01-16T05:08:12;29.88;;;14.30;;
55756;SDS011;41676;44.610;44.078;2024-01-16T05:13:13;30.10;;;13.93;;
55756;SDS011;41676;44.610;44.078;2024-01-16T05:18:13;45.10;;;20.35;;
55756;SDS011;41676;44.610;44.078;2024-01-16T05:23:14;51.38;;;20.90;;
55756;SDS011;41676;44.610;44.078;2024-01-16T05:28:15;43.75;;;17.67;;
55756;SDS011;41676;44.610;44.078;2024-01-16T05:33:15;33.67;;;14.77;;
55756;SDS011;41676;44.610;44.078;2024-01-16T05:38:16;33.13;;;13.13;;
55756;SDS011;41676;44.610;44.078;2024-01-16T05:43:17;26.92;;;14.05;;
55756;SDS011;41676;44.610;44.078;2024-01-16T05:48:18;27.20;;;14.13;;
55756;SDS011;41676;44.610;44.078;2024-01-16T05:53:37;26.88;;;13.77;;
55756;SDS011;41676;44.610;44.078;2024-01-16T05:58:38;25.85;;;13.85;;
55756;SDS011;41676;44.610;44.078;2024-01-16T06:03:40;21.48;;;12.82;;
55756;SDS011;41676;44.610;44.078;2024-01-16T06:08:41;22.15;;;13.30;;
55756;SDS011;41676;44.610;44.078;2024-01-16T06:13:42;27.08;;;15.18;;
55756;SDS011;41676;44.610;44.078;2024-01-16T06:18:43;33.83;;;18.02;;
55756;SDS011;41676;44.610;44.078;2024-01-16T06:23:45;26.27;;;13.90;;
55756;SDS011;41676;44.610;44.078;2024-01-16T06:28:46;30.48;;;16.48;;
55756;SDS011;41676;44.610;44.078;2024-01-16T06:33:47;41.13;;;17.33;;
55756;SDS011;41676;44.610;44.078;2024-01-16T06:38:48;27.13;;;16.50;;
55756;SDS011;41676;44.610;44.078;2024-01-16T06:43:49;39.70;;;20.70;;
55756;SDS011;41676;44.610;44.078;2024-01-16T06:48:49;30.23;;;17.35;;
55756;SDS011;41676;44.610;44.078;2024-01-16T06:53:50;27.23;;;15.15;;
55756;SDS011;41676;44.610;44.078;2024-01-16T06:58:51;22.83;;;13.75;;
55756;SDS011;41676;44.610;44.078;2024-01-16T07:03:51;25.80;;;14.73;;
55756;SDS011;41676;44.610;44.078;2024-01-16T07:08:52;26.60;;;15.13;;
55756;SDS011;41676;44.610;44.078;2024-01-16T07:13:53;33.80;;;15.15;;
55756;SDS011;41676;44.610;44.078;2024-01-16T07:18:54;43.17;;;14.18;;
55756;SDS011;41676;44.610;44.078;2024-01-16T07:23:55;24.90;;;15.60;;
55756;SDS011;41676;44.610;44.078;2024-01-16T07:28:56;24.55;;;14.75;;
55756;SDS011;41676;44.610;44.078;2024-01-16T07:33:57;22.38;;;14.45;;
55756;SDS011;41676;44.610;44.078;2024-01-16T07:38:58;25.08;;;15.30;;
55756;SDS011;41676;44.610;44.078;2024-01-16T07:43:59;23.92;;;14.82;;
55756;SDS011;41676;44.610;44.078;2024-01-16T07:49:00;29.13;;;15.73;;
55756;SDS011;41676;44.610;44.078;2024-01-16T07:54:04;24.85;;;15.20;;
55756;SDS011;41676;44.610;44.078;2024-01-16T07:59:07;23.65;;;15.07;;
55756;SDS011;41676;44.610;44.078;2024-01-16T08:04:07;21.60;;;14.75;;
55756;SDS011;41676;44.610;44.078;2024-01-16T08:09:08;23.17;;;15.07;;
55756;SDS011;41676;44.610;44.078;2024-01-16T08:14:11;23.90;;;15.23;;
55756;SDS011;41676;44.610;44.078;2024-01-16T08:19:13;26.38;;;14.93;;
55756;SDS011;41676;44.610;44.078;2024-01-16T08:24:14;24.80;;;15.82;;
55756;SDS011;41676;44.610;44.078;2024-01-16T08:29:15;26.85;;;16.58;;
55756;SDS011;41676;44.610;44.078;2024-01-16T08:34:16;26.42;;;15.70;;
55756;SDS011;41676;44.610;44.078;2024-01-16T08:39:17;24.77;;;15.52;;
55756;SDS011;41676;44.610;44.078;2024-01-16T08:44:17;20.33;;;13.52;;
55756;SDS011;41676;44.610;44.078;2024-01-16T08:49:18;18.90;;;12.07;;
55756;SDS011;41676;44.610;44.078;2024-01-16T08:54:19;21.20;;;12.77;;
55756;SDS011;41676;44.610;44.078;2024-01-16T08:59:23;19.63;;;12.43;;
55756;SDS011;41676;44.610;44.078;2024-01-16T09:04:24;19.10;;;11.93;;
55756;SDS011;41676;44.610;44.078;2024-01-16T09:09:25;19.08;;;12.38;;
55756;SDS011;41676;44.610;44.078;2024-01-16T09:14:25;21.13;;;12.38;;
55756;SDS011;41676;44.610;44.078;2024-01-16T09:19:26;18.10;;;11.85;;
55756;SDS011;41676;44.610;44.078;2024-01-16T09:24:27;17.95;;;11.57;;
55756;SDS011;41676;44.610;44.078;2024-01-16T09:29:28;18.75;;;11.13;;
55756;SDS011;41676;44.610;44.078;2024-01-16T09:34:28;17.70;;;10.18;;
55756;SDS011;41676;44.610;44.078;2024-01-16T09:39:29;14.52;;;8.93;;
55756;SDS011;41676;44.610;44.078;2024-01-16T09:44:38;14.15;;;9.43;;
55756;SDS011;41676;44.610;44.078;2024-01-16T09:49:38;15.52;;;8.75;;
55756;SDS011;41676;44.610;44.078;2024-01-16T09:54:40;13.85;;;8.80;;
55756;SDS011;41676;44.610;44.078;2024-01-16T09:59:41;12.57;;;8.63;;
55756;SDS011;41676;44.610;44.078;2024-01-16T10:04:44;15.23;;;8.68;;
55756;SDS011;41676;44.610;44.078;2024-01-16T10:09:45;13.05;;;8.68;;
55756;SDS011;41676;44.610;44.078;2024-01-16T10:14:45;19.95;;;9.15;;
55756;SDS011;41676;44.610;44.078;2024-01-16T10:19:53;15.00;;;8.90;;
55756;SDS011;41676;44.610;44.078;2024-01-16T10:25:06;16.25;;;9.75;;
55756;SDS011;41676;44.610;44.078;2024-01-16T10:30:11;14.27;;;9.30;;
55756;SDS011;41676;44.610;44.078;2024-01-16T10:35:13;23.90;;;9.70;;
55756;SDS011;41676;44.610;44.078;2024-01-16T10:40:15;15.50;;;10.27;;
55756;SDS011;41676;44.610;44.078;2024-01-16T10:45:17;16.73;;;9.57;;
55756;SDS011;41676;44.610;44.078;2024-01-16T10:50:19;13.75;;;8.52;;
55756;SDS011;41676;44.610;44.078;2024-01-16T10:55:23;13.15;;;7.97;;
55756;SDS011;41676;44.610;44.078;2024-01-16T11:00:24;15.02;;;7.90;;
55756;SDS011;41676;44.610;44.078;2024-01-16T11:05:25;12.50;;;7.43;;
55756;SDS011;41676;44.610;44.078;2024-01-16T11:10:27;17.15;;;7.00;;
55756;SDS011;41676;44.610;44.078;2024-01-16T11:15:28;11.80;;;6.35;;
55756;SDS011;41676;44.610;44.078;2024-01-16T11:20:29;14.40;;;6.90;;
55756;SDS011;41676;44.610;44.078;2024-01-16T11:25:32;12.55;;;6.60;;
55756;SDS011;41676;44.610;44.078;2024-01-16T11:30:34;14.73;;;6.55;;
55756;SDS011;41676;44.610;44.078;2024-01-16T11:35:35;11.25;;;6.80;;
55756;SDS011;41676;44.610;44.078;2024-01-16T11:40:37;10.82;;;6.10;;
55756;SDS011;41676;44.610;44.078;2024-01-16T11:50:48;9.23;;;5.63;;
55756;SDS011;41676;44.610;44.078;2024-01-16T12:01:18;8.82;;;5.88;;
55756;SDS011;41676;44.610;44.078;2024-01-16T12:06:22;8.93;;;5.00;;
55756;SDS011;41676;44.610;44.078;2024-01-16T12:11:23;8.93;;;4.93;;
55756;SDS011;41676;44.610;44.078;2024-01-16T12:16:24;8.77;;;4.82;;
55756;SDS011;41676;44.610;44.078;2024-01-16T12:21:25;8.27;;;4.65;;
55756;SDS011;41676;44.610;44.078;2024-01-16T12:26:26;9.75;;;4.63;;
55756;SDS011;41676;44.610;44.078;2024-01-16T12:31:27;8.93;;;4.50;;
55756;SDS011;41676;44.610;44.078;2024-01-16T12:36:29;16.20;;;4.50;;
55756;SDS011;41676;44.610;44.078;2024-01-16T12:41:34;19.30;;;5.68;;
55756;SDS011;41676;44.610;44.078;2024-01-16T12:46:39;15.00;;;5.80;;
55756;SDS011;41676;44.610;44.078;2024-01-16T12:51:40;14.45;;;5.95;;
55756;SDS011;41676;44.610;44.078;2024-01-16T12:56:41;8.73;;;5.85;;
55756;SDS011;41676;44.610;44.078;2024-01-16T13:01:43;12.60;;;5.47;;
55756;SDS011;41676;44.610;44.078;2024-01-16T13:06:46;13.18;;;5.30;;
55756;SDS011;41676;44.610;44.078;2024-01-16T13:11:49;9.10;;;5.35;;
55756;SDS011;41676;44.610;44.078;2024-01-16T13:16:55;10.32;;;5.28;;
55756;SDS011;41676;44.610;44.078;2024-01-16T13:21:56;12.43;;;5.25;;
55756;SDS011;41676;44.610;44.078;2024-01-16T13:26:56;15.07;;;5.93;;
55756;SDS011;41676;44.610;44.078;2024-01-16T13:31:58;15.13;;;7.72;;
55756;SDS011;41676;44.610;44.078;2024-01-16T13:37:00;12.35;;;7.35;;
55756;SDS011;41676;44.610;44.078;2024-01-16T13:42:04;17.50;;;8.57;;
55756;SDS011;41676;44.610;44.078;2024-01-16T13:47:06;14.80;;;8.07;;
55756;SDS011;41676;44.610;44.078;2024-01-16T13:52:07;13.63;;;7.75;;
55756;SDS011;41676;44.610;44.078;2024-01-16T13:57:08;11.13;;;5.65;;
55756;SDS011;41676;44.610;44.078;2024-01-16T14:02:09;12.63;;;5.90;;
55756;SDS011;41676;44.610;44.078;2024-01-16T14:07:09;13.73;;;6.68;;
55756;SDS011;41676;44.610;44.078;2024-01-16T14:12:10;8.95;;;5.22;;
55756;SDS011;41676;44.610;44.078;2024-01-16T14:17:12;11.77;;;5.32;;
55756;SDS011;41676;44.610;44.078;2024-01-16T14:22:13;18.95;;;6.60;;
55756;SDS011;41676;44.610;44.078;2024-01-16T14:27:13;10.52;;;5.55;;
55756;SDS011;41676;44.610;44.078;2024-01-16T14:32:15;14.38;;;5.43;;
55756;SDS011;41676;44.610;44.078;2024-01-16T14:37:16;9.93;;;5.35;;
55756;SDS011;41676;44.610;44.078;2024-01-16T14:42:17;15.10;;;5.40;;
55756;SDS011;41676;44.610;44.078;2024-01-16T14:47:18;15.48;;;6.20;;
55756;SDS011;41676;44.610;44.078;2024-01-16T14:52:20;9.50;;;5.07;;
55756;SDS011;41676;44.610;44.078;2024-01-16T14:57:22;11.90;;;4.72;;
55756;SDS011;41676;44.610;44.078;2024-01-16T15:02:23;7.03;;;4.53;;
55756;SDS011;41676;44.610;44.078;2024-01-16T15:07:24;12.68;;;4.53;;
55756;SDS011;41676;44.610;44.078;2024-01-16T15:12:27;9.07;;;4.28;;
55756;SDS011;41676;44.610;44.078;2024-01-16T15:17:28;22.13;;;4.70;;
55756;SDS011;41676;44.610;44.078;2024-01-16T15:22:28;18.25;;;4.40;;
55756;SDS011;41676;44.610;44.078;2024-01-16T15:27:29;10.32;;;4.55;;
55756;SDS011;41676;44.610;44.078;2024-01-16T15:32:31;15.55;;;4.68;;
55756;SDS011;41676;44.610;44.078;2024-01-16T15:37:35;11.25;;;4.70;;
55756;SDS011;41676;44.610;44.078;2024-01-16T15:42:54;9.38;;;4.18;;
55756;SDS011;41676;44.610;44.078;2024-01-16T15:47:57;7.88;;;3.65;;
55756;SDS011;41676;44.610;44.078;2024-01-16T15:52:58;8.95;;;4.50;;
55756;SDS011;41676;44.610;44.078;2024-01-16T15:57:59;16.02;;;5.25;;
55756;SDS011;41676;44.610;44.078;2024-01-16T16:03:00;10.90;;;5.10;;
55756;SDS011;41676;44.610;44.078;2024-01-16T16:08:01;10.77;;;4.53;;
55756;SDS011;41676;44.610;44.078;2024-01-16T16:13:01;13.88;;;6.20;;
55756;SDS011;41676;44.610;44.078;2024-01-16T16:18:04;13.38;;;5.65;;
55756;SDS011;41676;44.610;44.078;2024-01-16T16:23:05;9.63;;;4.85;;
55756;SDS011;41676;44.610;44.078;2024-01-16T16:28:07;12.05;;;4.78;;
55756;SDS011;41676;44.610;44.078;2024-01-16T16:33:08;10.93;;;4.75;;
55756;SDS011;41676;44.610;44.078;2024-01-16T16:38:09;9.20;;;4.78;;
55756;SDS011;41676;44.610;44.078;2024-01-16T16:43:10;11.45;;;4.80;;
55756;SDS011;41676;44.610;44.078;2024-01-16T16:48:11;13.10;;;5.45;;
55756;SDS011;41676;44.610;44.078;2024-01-16T16:53:13;10.20;;;5.40;;
55756;SDS011;41676;44.610;44.078;2024-01-16T16:58:13;12.75;;;5.65;;
55756;SDS011;41676;44.610;44.078;2024-01-16T17:03:14;12.70;;;6.57;;
55756;SDS011;41676;44.610;44.078;2024-01-16T17:08:15;11.88;;;6.63;;
55756;SDS011;41676;44.610;44.078;2024-01-16T17:13:16;14.50;;;7.18;;
55756;SDS011;41676;44.610;44.078;2024-01-16T17:18:17;13.27;;;7.07;;
55756;SDS011;41676;44.610;44.078;2024-01-16T17:23:18;12.77;;;6.72;;
55756;SDS011;41676;44.610;44.078;2024-01-16T17:28:19;12.98;;;6.72;;
55756;SDS011;41676;44.610;44.078;2024-01-16T17:33:23;15.60;;;6.40;;
55756;SDS011;41676;44.610;44.078;2024-01-16T17:38:23;14.50;;;7.07;;
55756;SDS011;41676;44.610;44.078;2024-01-16T17:43:24;19.58;;;7.60;;
55756;SDS011;41676;44.610;44.078;2024-01-16T17:48:25;11.98;;;6.50;;
55756;SDS011;41676;44.610;44.078;2024-01-16T17:53:26;18.83;;;6.32;;
55756;SDS011;41676;44.610;44.078;2024-01-16T17:58:28;13.60;;;6.70;;
55756;SDS011;41676;44.610;44.078;2024-01-16T18:03:28;12.30;;;6.20;;
55756;SDS011;41676;44.610;44.078;2024-01-16T18:08:29;13.15;;;7.35;;
55756;SDS011;41676;44.610;44.078;2024-01-16T18:13:30;21.40;;;7.03;;
55756;SDS011;41676;44.610;44.078;2024-01-16T18:18:32;17.65;;;8.90;;
55756;SDS011;41676;44.610;44.078;2024-01-16T18:23:33;16.17;;;7.40;;
55756;SDS011;41676;44.610;44.078;2024-01-16T18:28:34;14.77;;;6.50;;
55756;SDS011;41676;44.610;44.078;2024-01-16T18:33:35;12.25;;;6.35;;
55756;SDS011;41676;44.610;44.078;2024-01-16T18:38:38;17.02;;;6.65;;
55756;SDS011;41676;44.610;44.078;2024-01-16T18:43:40;10.50;;;6.32;;
55756;SDS011;41676;44.610;44.078;2024-01-16T18:48:41;12.80;;;6.32;;
55756;SDS011;41676;44.610;44.078;2024-01-16T18:53:43;12.65;;;6.38;;
55756;SDS011;41676;44.610;44.078;2024-01-16T18:58:44;14.48;;;6.85;;
55756;SDS011;41676;44.610;44.078;2024-01-16T19:03:45;10.40;;;6.07;;
55756;SDS011;41676;44.610;44.078;2024-01-16T19:08:46;14.90;;;5.93;;
55756;SDS011;41676;44.610;44.078;2024-01-16T19:13:47;10.00;;;6.03;;
55756;SDS011;41676;44.610;44.078;2024-01-16T19:18:48;11.20;;;5.43;;
55756;SDS011;41676;44.610;44.078;2024-01-16T19:23:49;17.92;;;6.38;;
55756;SDS011;41676;44.610;44.078;2024-01-16T19:28:50;13.63;;;5.97;;
55756;SDS011;41676;44.610;44.078;2024-01-16T19:33:51;10.02;;;5.57;;
55756;SDS011;41676;44.610;44.078;2024-01-16T19:38:51;14.80;;;6.00;;
55756;SDS011;41676;44.610;44.078;2024-01-16T19:43:52;9.32;;;6.18;;
55756;SDS011;41676;44.610;44.078;2024-01-16T19:48:53;11.98;;;6.45;;
55756;SDS011;41676;44.610;44.078;2024-01-16T19:53:55;17.85;;;8.70;;
55756;SDS011;41676;44.610;44.078;2024-01-16T19:58:56;14.02;;;5.68;;
55756;SDS011;41676;44.610;44.078;2024-01-16T20:03:58;15.80;;;6.50;;
55756;SDS011;41676;44.610;44.078;2024-01-16T20:09:00;16.90;;;6.07;;
55756;SDS011;41676;44.610;44.078;2024-01-16T20:14:04;16.67;;;6.72;;
55756;SDS011;41676;44.610;44.078;2024-01-16T20:19:05;12.77;;;6.65;;
55756;SDS011;41676;44.610;44.078;2024-01-16T20:24:07;15.18;;;6.75;;
55756;SDS011;41676;44.610;44.078;2024-01-16T20:29:08;12.23;;;6.13;;
55756;SDS011;41676;44.610;44.078;2024-01-16T20:34:10;9.75;;;6.10;;
55756;SDS011;41676;44.610;44.078;2024-01-16T20:39:11;11.13;;;5.88;;
55756;SDS011;41676;44.610;44.078;2024-01-16T20:44:12;10.45;;;5.63;;
55756;SDS011;41676;44.610;44.078;2024-01-16T20:49:32;10.75;;;5.88;;
55756;SDS011;41676;44.610;44.078;2024-01-16T20:54:37;14.35;;;6.03;;
55756;SDS011;41676;44.610;44.078;2024-01-16T20:59:38;12.95;;;5.90;;
55756;SDS011;41676;44.610;44.078;2024-01-16T21:04:39;10.10;;;5.50;;
55756;SDS011;41676;44.610;44.078;2024-01-16T21:09:41;9.27;;;6.53;;
55756;SDS011;41676;44.610;44.078;2024-01-16T21:14:42;17.02;;;6.97;;
55756;SDS011;41676;44.610;44.078;2024-01-16T21:19:43;13.13;;;6.18;;
55756;SDS011;41676;44.610;44.078;2024-01-16T21:24:45;13.50;;;6.55;;
55756;SDS011;41676;44.610;44.078;2024-01-16T21:29:45;13.50;;;7.35;;
55756;SDS011;41676;44.610;44.078;2024-01-16T21:34:47;11.93;;;7.63;;
55756;SDS011;41676;44.610;44.078;2024-01-16T21:39:48;16.45;;;9.02;;
55756;SDS011;41676;44.610;44.078;2024-01-16T21:44:49;20.13;;;9.50;;
55756;SDS011;41676;44.610;44.078;2024-01-16T21:49:51;17.42;;;9.85;;
55756;SDS011;41676;44.610;44.078;2024-01-16T21:54:52;19.25;;;10.07;;
55756;SDS011;41676;44.610;44.078;2024-01-16T21:59:53;18.27;;;10.10;;
55756;SDS011;41676;44.610;44.078;2024-01-16T22:04:54;17.70;;;10.07;;
55756;SDS011;41676;44.610;44.078;2024-01-16T22:09:54;13.90;;;7.38;;
55756;SDS011;41676;44.610;44.078;2024-01-16T22:14:56;16.90;;;9.05;;
55756;SDS011;41676;44.610;44.078;2024-01-16T22:19:57;15.50;;;8.45;;
55756;SDS011;41676;44.610;44.078;2024-01-16T22:24:58;19.23;;;9.38;;
55756;SDS011;41676;44.610;44.078;2024-01-16T22:30:00;18.33;;;9.20;;
55756;SDS011;41676;44.610;44.078;2024-01-16T22:35:01;22.45;;;9.38;;
55756;SDS011;41676;44.610;44.078;2024-01-16T22:40:02;16.75;;;8.82;;
55756;SDS011;41676;44.610;44.078;2024-01-16T22:45:05;19.27;;;9.05;;
55756;SDS011;41676;44.610;44.078;2024-01-16T22:50:07;23.83;;;10.93;;
55756;SDS011;41676;44.610;44.078;2024-01-16T22:55:08;24.33;;;10.73;;
55756;SDS011;41676;44.610;44.078;2024-01-16T23:00:09;24.58;;;11.32;;
55756;SDS011;41676;44.610;44.078;2024-01-16T23:05:20;18.60;;;10.98;;
55756;SDS011;41676;44.610;44.078;2024-01-16T23:10:21;28.73;;;10.15;;
55756;SDS011;41676;44.610;44.078;2024-01-16T23:15:21;26.02;;;9.98;;
55756;SDS011;41676;44.610;44.078;2024-01-16T23:20:22;24.80;;;9.77;;
55756;SDS011;41676;44.610;44.078;2024-01-16T23:25:23;20.23;;;8.02;;
55756;SDS011;41676;44.610;44.078;2024-01-16T23:30:26;13.75;;;8.45;;
55756;SDS011;41676;44.610;44.078;2024-01-16T23:35:27;25.83;;;9.18;;
55756;SDS011;41676;44.610;44.078;2024-01-16T23:40:27;25.20;;;9.65;;
55756;SDS011;41676;44.610;44.078;2024-01-16T23:45:28;20.33;;;9.48;;
55756;SDS011;41676;44.610;44.078;2024-01-16T23:50:30;17.30;;;9.55;;
55756;SDS011;41676;44.610;44.078;2024-01-16T23:55:31;12.30;;;8.00;;
